sensor_id;sensor_type;location;lat;lon;timestamp;temperature;humidity
13203;DHT22;6666;51.626;7.530;2022-08-19T00:01:53;18.40;99.90
13203;DHT22;6666;51.626;7.530;2022-08-19T00:04:24;18.50;99.90
13203;DHT22;6666;51.626;7.530;2022-08-19T00:06:53;18.40;99.90
13203;DHT22;6666;51.626;7.530;2022-08-19T00:09:23;18.40;99.90
13203;DHT22;6666;51.626;7.530;2022-08-19T00:11:53;18.40;99.90
13203;DHT22;6666;51.626;7.530;2022-08-19T00:14:24;18.40;99.90
13203;DHT22;6666;51.626;7.530;2022-08-19T00:16:53;18.20;99.90
13203;DHT22;6666;51.626;7.530;2022-08-19T00:19:22;18.30;99.90
13203;DHT22;6666;51.626;7.530;2022-08-19T00:21:51;18.20;99.90
13203;DHT22;6666;51.626;7.530;2022-08-19T00:24:19;18.20;99.90
13203;DHT22;6666;51.626;7.530;2022-08-19T00:26:49;18.20;99.90
13203;DHT22;6666;51.626;7.530;2022-08-19T00:29:20;18.20;99.90
13203;DHT22;6666;51.626;7.530;2022-08-19T00:31:49;18.20;99.90
13203;DHT22;6666;51.626;7.530;2022-08-19T00:34:20;18.20;99.90
13203;DHT22;6666;51.626;7.530;2022-08-19T00:36:49;18.20;99.90
13203;DHT22;6666;51.626;7.530;2022-08-19T00:39:17;18.20;99.90
13203;DHT22;6666;51.626;7.530;2022-08-19T00:41:47;18.10;99.90
13203;DHT22;6666;51.626;7.530;2022-08-19T00:44:21;18.10;99.90
13203;DHT22;6666;51.626;7.530;2022-08-19T00:46:54;18.10;99.90
13203;DHT22;6666;51.626;7.530;2022-08-19T00:49:29;18.10;99.90
13203;DHT22;6666;51.626;7.530;2022-08-19T00:52:00;18.10;99.90
13203;DHT22;6666;51.626;7.530;2022-08-19T00:54:30;18.10;99.90
13203;DHT22;6666;51.626;7.530;2022-08-19T00:57:00;18.10;99.90
13203;DHT22;6666;51.626;7.530;2022-08-19T00:59:31;18.10;99.90
13203;DHT22;6666;51.626;7.530;2022-08-19T01:02:22;18.00;99.90
13203;DHT22;6666;51.626;7.530;2022-08-19T01:04:50;18.00;99.90
13203;DHT22;6666;51.626;7.530;2022-08-19T01:07:19;17.80;99.90
13203;DHT22;6666;51.626;7.530;2022-08-19T01:09:47;17.90;99.90
13203;DHT22;6666;51.626;7.530;2022-08-19T01:12:16;17.90;99.90
13203;DHT22;6666;51.626;7.530;2022-08-19T01:14:47;17.90;99.90
13203;DHT22;6666;51.626;7.530;2022-08-19T01:17:16;18.00;99.90
13203;DHT22;6666;51.626;7.530;2022-08-19T01:19:46;18.00;99.90
13203;DHT22;6666;51.626;7.530;2022-08-19T01:22:20;17.90;99.90
13203;DHT22;6666;51.626;7.530;2022-08-19T01:25:00;17.80;99.90
13203;DHT22;6666;51.626;7.530;2022-08-19T01:27:44;17.90;99.90
13203;DHT22;6666;51.626;7.530;2022-08-19T01:30:15;17.90;99.90
13203;DHT22;6666;51.626;7.530;2022-08-19T01:32:44;17.80;99.90
13203;DHT22;6666;51.626;7.530;2022-08-19T01:35:13;17.70;99.90
13203;DHT22;6666;51.626;7.530;2022-08-19T01:37:47;17.60;99.90
13203;DHT22;6666;51.626;7.530;2022-08-19T01:40:20;17.60;99.90
13203;DHT22;6666;51.626;7.530;2022-08-19T01:42:48;17.60;99.90
13203;DHT22;6666;51.626;7.530;2022-08-19T01:45:18;17.70;99.90
13203;DHT22;6666;51.626;7.530;2022-08-19T01:47:46;17.70;99.90
13203;DHT22;6666;51.626;7.530;2022-08-19T01:50:28;17.70;99.90
13203;DHT22;6666;51.626;7.530;2022-08-19T01:52:57;17.70;99.90
13203;DHT22;6666;51.626;7.530;2022-08-19T01:55:39;17.70;99.90
13203;DHT22;6666;51.626;7.530;2022-08-19T01:58:11;17.60;99.90
13203;DHT22;6666;51.626;7.530;2022-08-19T02:00:40;17.60;99.90
13203;DHT22;6666;51.626;7.530;2022-08-19T02:03:08;17.60;99.90
13203;DHT22;6666;51.626;7.530;2022-08-19T02:05:39;17.50;99.90
13203;DHT22;6666;51.626;7.530;2022-08-19T02:08:08;17.40;99.90
13203;DHT22;6666;51.626;7.530;2022-08-19T02:10:41;17.50;99.90
13203;DHT22;6666;51.626;7.530;2022-08-19T02:13:10;17.40;99.90
13203;DHT22;6666;51.626;7.530;2022-08-19T02:15:38;17.50;99.90
13203;DHT22;6666;51.626;7.530;2022-08-19T02:18:07;17.50;99.90
13203;DHT22;6666;51.626;7.530;2022-08-19T02:20:36;17.50;99.90
13203;DHT22;6666;51.626;7.530;2022-08-19T02:23:05;17.50;99.90
13203;DHT22;6666;51.626;7.530;2022-08-19T02:25:44;17.40;99.90
13203;DHT22;6666;51.626;7.530;2022-08-19T02:28:13;17.40;99.90
13203;DHT22;6666;51.626;7.530;2022-08-19T02:30:46;17.40;99.90
13203;DHT22;6666;51.626;7.530;2022-08-19T02:33:16;17.40;99.90
13203;DHT22;6666;51.626;7.530;2022-08-19T02:35:45;17.40;99.90
13203;DHT22;6666;51.626;7.530;2022-08-19T02:38:14;17.30;99.90
13203;DHT22;6666;51.626;7.530;2022-08-19T02:40:57;17.30;99.90
13203;DHT22;6666;51.626;7.530;2022-08-19T02:43:27;17.30;99.90
13203;DHT22;6666;51.626;7.530;2022-08-19T02:46:01;17.30;99.90
13203;DHT22;6666;51.626;7.530;2022-08-19T02:48:29;17.30;99.90
13203;DHT22;6666;51.626;7.530;2022-08-19T02:50:59;17.30;99.90
13203;DHT22;6666;51.626;7.530;2022-08-19T02:53:28;17.40;99.90
13203;DHT22;6666;51.626;7.530;2022-08-19T02:55:58;17.40;99.90
13203;DHT22;6666;51.626;7.530;2022-08-19T02:58:26;17.30;99.90
13203;DHT22;6666;51.626;7.530;2022-08-19T03:00:56;17.30;99.90
13203;DHT22;6666;51.626;7.530;2022-08-19T03:03:25;17.30;99.90
13203;DHT22;6666;51.626;7.530;2022-08-19T03:06:08;17.30;99.90
13203;DHT22;6666;51.626;7.530;2022-08-19T03:08:37;17.50;99.90
13203;DHT22;6666;51.626;7.530;2022-08-19T03:11:11;17.50;99.90
13203;DHT22;6666;51.626;7.530;2022-08-19T03:13:40;17.50;99.90
13203;DHT22;6666;51.626;7.530;2022-08-19T03:16:10;17.50;99.90
13203;DHT22;6666;51.626;7.530;2022-08-19T03:18:39;17.40;99.90
13203;DHT22;6666;51.626;7.530;2022-08-19T03:21:07;17.40;99.90
13203;DHT22;6666;51.626;7.530;2022-08-19T03:23:38;17.30;99.90
13203;DHT22;6666;51.626;7.530;2022-08-19T03:26:08;17.30;99.90
13203;DHT22;6666;51.626;7.530;2022-08-19T03:28:42;17.30;99.90
13203;DHT22;6666;51.626;7.530;2022-08-19T03:31:21;17.30;99.90
13203;DHT22;6666;51.626;7.530;2022-08-19T03:34:11;17.20;99.90
13203;DHT22;6666;51.626;7.530;2022-08-19T03:36:40;17.20;99.90
13203;DHT22;6666;51.626;7.530;2022-08-19T03:39:09;17.20;99.90
13203;DHT22;6666;51.626;7.530;2022-08-19T03:41:41;17.30;99.90
13203;DHT22;6666;51.626;7.530;2022-08-19T03:44:15;17.20;99.90
13203;DHT22;6666;51.626;7.530;2022-08-19T03:46:46;17.20;99.90
13203;DHT22;6666;51.626;7.530;2022-08-19T03:49:15;17.10;99.90
13203;DHT22;6666;51.626;7.530;2022-08-19T03:51:46;17.10;99.90
13203;DHT22;6666;51.626;7.530;2022-08-19T03:54:18;17.00;99.90
13203;DHT22;6666;51.626;7.530;2022-08-19T03:56:50;17.10;99.90
13203;DHT22;6666;51.626;7.530;2022-08-19T03:59:21;17.10;99.90
13203;DHT22;6666;51.626;7.530;2022-08-19T04:01:52;17.10;99.90
13203;DHT22;6666;51.626;7.530;2022-08-19T04:04:21;17.10;99.90
13203;DHT22;6666;51.626;7.530;2022-08-19T04:06:50;17.10;99.90
13203;DHT22;6666;51.626;7.530;2022-08-19T04:09:19;17.10;99.90
13203;DHT22;6666;51.626;7.530;2022-08-19T04:11:51;17.20;99.90
13203;DHT22;6666;51.626;7.530;2022-08-19T04:14:22;17.10;99.90
13203;DHT22;6666;51.626;7.530;2022-08-19T04:16:51;17.10;99.90
13203;DHT22;6666;51.626;7.530;2022-08-19T04:19:20;17.00;99.90
13203;DHT22;6666;51.626;7.530;2022-08-19T04:21:50;17.00;99.90
13203;DHT22;6666;51.626;7.530;2022-08-19T04:24:20;16.90;99.90
13203;DHT22;6666;51.626;7.530;2022-08-19T04:26:50;16.90;99.90
13203;DHT22;6666;51.626;7.530;2022-08-19T04:29:20;16.80;99.90
13203;DHT22;6666;51.626;7.530;2022-08-19T04:31:52;16.80;99.90
13203;DHT22;6666;51.626;7.530;2022-08-19T04:34:24;16.80;99.90
13203;DHT22;6666;51.626;7.530;2022-08-19T04:36:54;16.90;99.90
13203;DHT22;6666;51.626;7.530;2022-08-19T04:39:25;16.90;99.90
13203;DHT22;6666;51.626;7.530;2022-08-19T04:42:16;17.00;99.90
13203;DHT22;6666;51.626;7.530;2022-08-19T04:45:03;17.10;99.90
13203;DHT22;6666;51.626;7.530;2022-08-19T04:47:36;17.10;99.90
13203;DHT22;6666;51.626;7.530;2022-08-19T04:50:24;17.10;99.90
13203;DHT22;6666;51.626;7.530;2022-08-19T04:52:52;17.20;99.90
13203;DHT22;6666;51.626;7.530;2022-08-19T04:55:22;17.20;99.90
13203;DHT22;6666;51.626;7.530;2022-08-19T04:57:54;17.20;99.90
13203;DHT22;6666;51.626;7.530;2022-08-19T05:00:23;17.20;99.90
13203;DHT22;6666;51.626;7.530;2022-08-19T05:02:51;17.10;99.90
13203;DHT22;6666;51.626;7.530;2022-08-19T05:05:19;17.20;99.90
13203;DHT22;6666;51.626;7.530;2022-08-19T05:07:48;17.30;99.90
13203;DHT22;6666;51.626;7.530;2022-08-19T05:10:16;17.30;99.90
13203;DHT22;6666;51.626;7.530;2022-08-19T05:12:45;17.40;99.90
13203;DHT22;6666;51.626;7.530;2022-08-19T05:15:16;17.30;99.90
13203;DHT22;6666;51.626;7.530;2022-08-19T05:17:45;17.40;99.90
13203;DHT22;6666;51.626;7.530;2022-08-19T05:20:28;17.40;99.90
13203;DHT22;6666;51.626;7.530;2022-08-19T05:23:13;17.60;99.90
13203;DHT22;6666;51.626;7.530;2022-08-19T05:25:48;18.00;99.90
13203;DHT22;6666;51.626;7.530;2022-08-19T05:28:17;18.10;99.90
13203;DHT22;6666;51.626;7.530;2022-08-19T05:30:47;18.00;99.90
13203;DHT22;6666;51.626;7.530;2022-08-19T05:33:17;17.70;99.90
13203;DHT22;6666;51.626;7.530;2022-08-19T05:35:46;17.50;99.90
13203;DHT22;6666;51.626;7.530;2022-08-19T05:38:16;17.60;99.90
13203;DHT22;6666;51.626;7.530;2022-08-19T05:40:44;17.60;99.90
13203;DHT22;6666;51.626;7.530;2022-08-19T05:43:14;17.50;99.90
13203;DHT22;6666;51.626;7.530;2022-08-19T05:45:44;17.60;99.90
13203;DHT22;6666;51.626;7.530;2022-08-19T05:48:14;18.10;99.90
13203;DHT22;6666;51.626;7.530;2022-08-19T05:50:44;18.00;99.90
13203;DHT22;6666;51.626;7.530;2022-08-19T05:53:12;17.90;99.90
13203;DHT22;6666;51.626;7.530;2022-08-19T05:55:43;17.90;99.90
13203;DHT22;6666;51.626;7.530;2022-08-19T05:58:11;17.90;99.90
13203;DHT22;6666;51.626;7.530;2022-08-19T06:00:40;18.00;99.90
13203;DHT22;6666;51.626;7.530;2022-08-19T06:03:10;18.00;99.90
13203;DHT22;6666;51.626;7.530;2022-08-19T06:05:41;18.20;99.90
13203;DHT22;6666;51.626;7.530;2022-08-19T06:08:19;18.20;99.90
13203;DHT22;6666;51.626;7.530;2022-08-19T06:11:13;18.30;99.90
13203;DHT22;6666;51.626;7.530;2022-08-19T06:13:42;18.50;99.90
13203;DHT22;6666;51.626;7.530;2022-08-19T06:16:11;18.60;99.90
13203;DHT22;6666;51.626;7.530;2022-08-19T06:18:40;18.60;99.90
13203;DHT22;6666;51.626;7.530;2022-08-19T06:21:12;18.50;99.90
13203;DHT22;6666;51.626;7.530;2022-08-19T06:23:41;18.60;99.90
13203;DHT22;6666;51.626;7.530;2022-08-19T06:26:12;18.60;99.90
13203;DHT22;6666;51.626;7.530;2022-08-19T06:28:40;18.70;99.90
13203;DHT22;6666;51.626;7.530;2022-08-19T06:31:13;18.70;99.90
13203;DHT22;6666;51.626;7.530;2022-08-19T06:33:43;18.80;99.90
13203;DHT22;6666;51.626;7.530;2022-08-19T06:36:19;18.90;99.90
13203;DHT22;6666;51.626;7.530;2022-08-19T06:38:51;19.00;99.90
13203;DHT22;6666;51.626;7.530;2022-08-19T06:41:20;19.10;99.90
13203;DHT22;6666;51.626;7.530;2022-08-19T06:43:48;19.20;99.90
13203;DHT22;6666;51.626;7.530;2022-08-19T06:46:20;19.40;99.90
13203;DHT22;6666;51.626;7.530;2022-08-19T06:48:48;19.50;99.90
13203;DHT22;6666;51.626;7.530;2022-08-19T06:51:21;19.70;99.90
13203;DHT22;6666;51.626;7.530;2022-08-19T06:53:52;20.00;99.90
13203;DHT22;6666;51.626;7.530;2022-08-19T06:56:25;20.10;99.90
13203;DHT22;6666;51.626;7.530;2022-08-19T06:58:58;20.30;99.90
13203;DHT22;6666;51.626;7.530;2022-08-19T07:01:26;20.50;99.90
13203;DHT22;6666;51.626;7.530;2022-08-19T07:03:55;20.60;99.90
13203;DHT22;6666;51.626;7.530;2022-08-19T07:06:25;20.80;99.90
13203;DHT22;6666;51.626;7.530;2022-08-19T07:09:12;20.90;99.90
13203;DHT22;6666;51.626;7.530;2022-08-19T07:11:45;21.10;99.90
13203;DHT22;6666;51.626;7.530;2022-08-19T07:14:14;21.20;99.90
13203;DHT22;6666;51.626;7.530;2022-08-19T07:16:47;21.20;99.90
13203;DHT22;6666;51.626;7.530;2022-08-19T07:19:17;21.10;99.90
13203;DHT22;6666;51.626;7.530;2022-08-19T07:21:48;21.00;99.90
13203;DHT22;6666;51.626;7.530;2022-08-19T07:24:21;21.10;99.90
13203;DHT22;6666;51.626;7.530;2022-08-19T07:26:51;21.10;99.90
13203;DHT22;6666;51.626;7.530;2022-08-19T07:29:21;21.10;99.90
13203;DHT22;6666;51.626;7.530;2022-08-19T07:31:55;21.10;99.90
13203;DHT22;6666;51.626;7.530;2022-08-19T07:34:28;21.20;99.90
13203;DHT22;6666;51.626;7.530;2022-08-19T07:36:58;21.20;99.90
13203;DHT22;6666;51.626;7.530;2022-08-19T07:39:30;21.30;99.90
13203;DHT22;6666;51.626;7.530;2022-08-19T07:42:00;21.30;99.90
13203;DHT22;6666;51.626;7.530;2022-08-19T07:44:30;21.40;99.90
13203;DHT22;6666;51.626;7.530;2022-08-19T07:47:03;21.50;99.90
13203;DHT22;6666;51.626;7.530;2022-08-19T07:49:32;21.50;99.90
13203;DHT22;6666;51.626;7.530;2022-08-19T07:52:07;21.50;99.90
13203;DHT22;6666;51.626;7.530;2022-08-19T07:54:37;21.50;99.90
13203;DHT22;6666;51.626;7.530;2022-08-19T07:57:06;21.60;99.90
13203;DHT22;6666;51.626;7.530;2022-08-19T07:59:35;21.70;99.90
13203;DHT22;6666;51.626;7.530;2022-08-19T08:02:05;21.70;99.90
13203;DHT22;6666;51.626;7.530;2022-08-19T08:04:34;21.70;99.90
13203;DHT22;6666;51.626;7.530;2022-08-19T08:07:18;21.80;99.90
13203;DHT22;6666;51.626;7.530;2022-08-19T08:10:04;21.80;99.90
13203;DHT22;6666;51.626;7.530;2022-08-19T08:12:47;22.00;99.90
13203;DHT22;6666;51.626;7.530;2022-08-19T08:15:36;22.00;99.90
13203;DHT22;6666;51.626;7.530;2022-08-19T08:18:09;22.10;99.90
13203;DHT22;6666;51.626;7.530;2022-08-19T08:20:38;22.40;99.90
13203;DHT22;6666;51.626;7.530;2022-08-19T08:23:08;22.50;99.90
13203;DHT22;6666;51.626;7.530;2022-08-19T08:25:56;22.70;99.90
13203;DHT22;6666;51.626;7.530;2022-08-19T08:28:25;22.80;99.90
13203;DHT22;6666;51.626;7.530;2022-08-19T08:30:56;22.80;99.90
13203;DHT22;6666;51.626;7.530;2022-08-19T08:33:28;22.90;99.90
13203;DHT22;6666;51.626;7.530;2022-08-19T08:36:01;23.00;99.90
13203;DHT22;6666;51.626;7.530;2022-08-19T08:38:32;22.90;99.90
13203;DHT22;6666;51.626;7.530;2022-08-19T08:41:11;23.10;99.90
13203;DHT22;6666;51.626;7.530;2022-08-19T08:43:49;23.30;99.90
13203;DHT22;6666;51.626;7.530;2022-08-19T08:46:24;23.30;99.90
13203;DHT22;6666;51.626;7.530;2022-08-19T08:49:02;23.40;99.90
13203;DHT22;6666;51.626;7.530;2022-08-19T08:51:47;23.50;99.90
13203;DHT22;6666;51.626;7.530;2022-08-19T08:54:32;23.50;99.90
13203;DHT22;6666;51.626;7.530;2022-08-19T08:57:04;23.70;99.90
13203;DHT22;6666;51.626;7.530;2022-08-19T08:59:35;24.10;99.90
13203;DHT22;6666;51.626;7.530;2022-08-19T09:02:04;24.30;99.90
13203;DHT22;6666;51.626;7.530;2022-08-19T09:04:34;24.40;99.90
13203;DHT22;6666;51.626;7.530;2022-08-19T09:07:17;24.50;99.90
13203;DHT22;6666;51.626;7.530;2022-08-19T09:10:10;24.30;99.90
13203;DHT22;6666;51.626;7.530;2022-08-19T09:12:50;24.00;99.90
13203;DHT22;6666;51.626;7.530;2022-08-19T09:15:27;23.70;99.90
13203;DHT22;6666;51.626;7.530;2022-08-19T09:18:03;23.90;99.90
13203;DHT22;6666;51.626;7.530;2022-08-19T09:20:33;24.20;99.90
13203;DHT22;6666;51.626;7.530;2022-08-19T09:23:02;24.40;99.90
13203;DHT22;6666;51.626;7.530;2022-08-19T09:25:32;24.50;99.90
13203;DHT22;6666;51.626;7.530;2022-08-19T09:28:01;24.60;99.90
13203;DHT22;6666;51.626;7.530;2022-08-19T09:30:46;24.70;99.90
13203;DHT22;6666;51.626;7.530;2022-08-19T09:33:14;24.70;99.90
13203;DHT22;6666;51.626;7.530;2022-08-19T09:35:43;24.80;99.90
13203;DHT22;6666;51.626;7.530;2022-08-19T09:38:19;24.90;99.90
13203;DHT22;6666;51.626;7.530;2022-08-19T09:40:49;25.10;99.90
13203;DHT22;6666;51.626;7.530;2022-08-19T09:43:17;25.30;99.90
13203;DHT22;6666;51.626;7.530;2022-08-19T09:45:59;25.10;99.90
13203;DHT22;6666;51.626;7.530;2022-08-19T09:48:28;25.10;99.90
13203;DHT22;6666;51.626;7.530;2022-08-19T09:51:03;25.00;99.90
13203;DHT22;6666;51.626;7.530;2022-08-19T09:53:31;25.10;99.90
13203;DHT22;6666;51.626;7.530;2022-08-19T09:56:02;25.20;99.90
13203;DHT22;6666;51.626;7.530;2022-08-19T09:58:30;25.30;99.90
13203;DHT22;6666;51.626;7.530;2022-08-19T10:01:00;25.50;99.90
13203;DHT22;6666;51.626;7.530;2022-08-19T10:03:30;25.40;99.90
13203;DHT22;6666;51.626;7.530;2022-08-19T10:06:01;25.20;99.90
13203;DHT22;6666;51.626;7.530;2022-08-19T10:08:33;25.30;99.90
13203;DHT22;6666;51.626;7.530;2022-08-19T10:11:03;25.20;99.90
13203;DHT22;6666;51.626;7.530;2022-08-19T10:13:52;25.20;99.90
13203;DHT22;6666;51.626;7.530;2022-08-19T10:16:22;25.50;99.90
13203;DHT22;6666;51.626;7.530;2022-08-19T10:18:56;25.40;99.90
13203;DHT22;6666;51.626;7.530;2022-08-19T10:21:31;25.60;99.90
13203;DHT22;6666;51.626;7.530;2022-08-19T10:24:03;25.40;99.90
13203;DHT22;6666;51.626;7.530;2022-08-19T10:26:36;25.30;99.90
13203;DHT22;6666;51.626;7.530;2022-08-19T10:29:05;25.50;99.90
13203;DHT22;6666;51.626;7.530;2022-08-19T10:31:36;25.30;99.90
13203;DHT22;6666;51.626;7.530;2022-08-19T10:34:24;25.20;99.90
13203;DHT22;6666;51.626;7.530;2022-08-19T10:36:55;25.30;99.90
13203;DHT22;6666;51.626;7.530;2022-08-19T10:39:28;25.20;99.90
13203;DHT22;6666;51.626;7.530;2022-08-19T10:42:09;25.30;99.90
13203;DHT22;6666;51.626;7.530;2022-08-19T10:44:40;25.30;99.90
13203;DHT22;6666;51.626;7.530;2022-08-19T10:47:09;25.50;99.90
13203;DHT22;6666;51.626;7.530;2022-08-19T10:49:51;25.90;99.90
13203;DHT22;6666;51.626;7.530;2022-08-19T10:52:38;26.00;99.90
13203;DHT22;6666;51.626;7.530;2022-08-19T10:55:17;26.00;99.90
13203;DHT22;6666;51.626;7.530;2022-08-19T10:58:10;26.20;99.90
13203;DHT22;6666;51.626;7.530;2022-08-19T11:00:39;26.10;99.90
13203;DHT22;6666;51.626;7.530;2022-08-19T11:03:09;26.30;99.90
13203;DHT22;6666;51.626;7.530;2022-08-19T11:05:37;26.30;99.90
13203;DHT22;6666;51.626;7.530;2022-08-19T11:08:07;26.20;99.90
13203;DHT22;6666;51.626;7.530;2022-08-19T11:10:50;26.40;99.90
13203;DHT22;6666;51.626;7.530;2022-08-19T11:13:22;26.60;99.90
13203;DHT22;6666;51.626;7.530;2022-08-19T11:15:59;26.50;99.90
13203;DHT22;6666;51.626;7.530;2022-08-19T11:18:35;26.00;99.90
13203;DHT22;6666;51.626;7.530;2022-08-19T11:21:09;25.70;99.90
13203;DHT22;6666;51.626;7.530;2022-08-19T11:23:38;25.80;99.90
13203;DHT22;6666;51.626;7.530;2022-08-19T11:26:06;25.90;99.90
13203;DHT22;6666;51.626;7.530;2022-08-19T11:28:36;25.90;99.90
13203;DHT22;6666;51.626;7.530;2022-08-19T11:31:09;25.80;99.90
13203;DHT22;6666;51.626;7.530;2022-08-19T11:33:38;26.20;99.90
13203;DHT22;6666;51.626;7.530;2022-08-19T11:36:07;26.10;99.90
13203;DHT22;6666;51.626;7.530;2022-08-19T11:38:41;25.70;99.90
13203;DHT22;6666;51.626;7.530;2022-08-19T11:41:09;25.80;99.90
13203;DHT22;6666;51.626;7.530;2022-08-19T11:43:39;25.90;99.90
13203;DHT22;6666;51.626;7.530;2022-08-19T11:46:09;26.10;99.90
13203;DHT22;6666;51.626;7.530;2022-08-19T11:48:39;26.00;99.90
13203;DHT22;6666;51.626;7.530;2022-08-19T11:51:11;25.50;99.90
13203;DHT22;6666;51.626;7.530;2022-08-19T11:53:40;25.40;99.90
13203;DHT22;6666;51.626;7.530;2022-08-19T11:56:09;25.30;99.90
13203;DHT22;6666;51.626;7.530;2022-08-19T11:58:40;25.50;99.90
13203;DHT22;6666;51.626;7.530;2022-08-19T12:01:09;25.60;99.90
13203;DHT22;6666;51.626;7.530;2022-08-19T12:03:39;25.70;99.90
13203;DHT22;6666;51.626;7.530;2022-08-19T12:06:10;25.80;99.90
13203;DHT22;6666;51.626;7.530;2022-08-19T12:08:40;25.70;99.90
13203;DHT22;6666;51.626;7.530;2022-08-19T12:11:09;25.70;99.90
13203;DHT22;6666;51.626;7.530;2022-08-19T12:13:40;25.90;99.90
13203;DHT22;6666;51.626;7.530;2022-08-19T12:16:13;26.00;99.90
13203;DHT22;6666;51.626;7.530;2022-08-19T12:18:43;26.00;99.90
13203;DHT22;6666;51.626;7.530;2022-08-19T12:21:13;25.90;99.90
13203;DHT22;6666;51.626;7.530;2022-08-19T12:23:42;26.00;99.90
13203;DHT22;6666;51.626;7.530;2022-08-19T12:26:12;25.80;99.90
13203;DHT22;6666;51.626;7.530;2022-08-19T12:28:41;25.70;99.90
13203;DHT22;6666;51.626;7.530;2022-08-19T12:31:11;25.60;99.90
13203;DHT22;6666;51.626;7.530;2022-08-19T12:33:39;25.50;99.90
13203;DHT22;6666;51.626;7.530;2022-08-19T12:36:10;25.40;99.90
13203;DHT22;6666;51.626;7.530;2022-08-19T12:38:39;25.50;99.90
13203;DHT22;6666;51.626;7.530;2022-08-19T12:41:10;25.60;99.90
13203;DHT22;6666;51.626;7.530;2022-08-19T12:43:40;25.60;99.90
13203;DHT22;6666;51.626;7.530;2022-08-19T12:46:10;25.60;99.90
13203;DHT22;6666;51.626;7.530;2022-08-19T12:48:39;25.70;99.90
13203;DHT22;6666;51.626;7.530;2022-08-19T12:51:10;25.90;99.90
13203;DHT22;6666;51.626;7.530;2022-08-19T12:53:39;25.90;99.90
13203;DHT22;6666;51.626;7.530;2022-08-19T12:56:08;25.90;99.90
13203;DHT22;6666;51.626;7.530;2022-08-19T12:58:39;25.80;99.90
13203;DHT22;6666;51.626;7.530;2022-08-19T13:01:17;26.00;99.90
13203;DHT22;6666;51.626;7.530;2022-08-19T13:03:50;26.50;99.90
13203;DHT22;6666;51.626;7.530;2022-08-19T13:06:21;26.50;99.90
13203;DHT22;6666;51.626;7.530;2022-08-19T13:08:49;26.30;99.90
13203;DHT22;6666;51.626;7.530;2022-08-19T13:11:23;26.10;99.90
13203;DHT22;6666;51.626;7.530;2022-08-19T13:13:52;26.30;99.90
13203;DHT22;6666;51.626;7.530;2022-08-19T13:16:23;26.20;99.90
13203;DHT22;6666;51.626;7.530;2022-08-19T13:18:54;25.90;99.90
13203;DHT22;6666;51.626;7.530;2022-08-19T13:21:24;25.80;99.90
13203;DHT22;6666;51.626;7.530;2022-08-19T13:23:53;25.80;99.90
13203;DHT22;6666;51.626;7.530;2022-08-19T13:26:22;25.90;99.90
13203;DHT22;6666;51.626;7.530;2022-08-19T13:28:50;26.10;99.90
13203;DHT22;6666;51.626;7.530;2022-08-19T13:31:40;26.30;99.90
13203;DHT22;6666;51.626;7.530;2022-08-19T13:34:30;26.40;99.90
13203;DHT22;6666;51.626;7.530;2022-08-19T13:37:00;26.50;99.60
13203;DHT22;6666;51.626;7.530;2022-08-19T13:39:31;26.50;99.30
13203;DHT22;6666;51.626;7.530;2022-08-19T13:42:00;26.50;99.90
13203;DHT22;6666;51.626;7.530;2022-08-19T13:44:30;26.60;99.90
13203;DHT22;6666;51.626;7.530;2022-08-19T13:47:03;26.70;99.30
13203;DHT22;6666;51.626;7.530;2022-08-19T13:49:34;26.90;99.30
13203;DHT22;6666;51.626;7.530;2022-08-19T13:52:03;27.00;99.90
13203;DHT22;6666;51.626;7.530;2022-08-19T13:54:32;27.00;99.00
13203;DHT22;6666;51.626;7.530;2022-08-19T13:57:00;27.20;98.50
13203;DHT22;6666;51.626;7.530;2022-08-19T13:59:28;27.40;98.20
13203;DHT22;6666;51.626;7.530;2022-08-19T14:01:58;27.10;98.40
13203;DHT22;6666;51.626;7.530;2022-08-19T14:04:28;27.10;99.20
13203;DHT22;6666;51.626;7.530;2022-08-19T14:06:57;27.00;99.50
13203;DHT22;6666;51.626;7.530;2022-08-19T14:09:25;27.00;99.90
13203;DHT22;6666;51.626;7.530;2022-08-19T14:11:53;26.90;99.00
13203;DHT22;6666;51.626;7.530;2022-08-19T14:14:22;27.20;99.20
13203;DHT22;6666;51.626;7.530;2022-08-19T14:16:50;27.00;99.70
13203;DHT22;6666;51.626;7.530;2022-08-19T14:19:19;26.80;99.40
13203;DHT22;6666;51.626;7.530;2022-08-19T14:21:50;26.70;99.00
13203;DHT22;6666;51.626;7.530;2022-08-19T14:24:19;26.80;98.20
13203;DHT22;6666;51.626;7.530;2022-08-19T14:26:47;27.00;97.90
13203;DHT22;6666;51.626;7.530;2022-08-19T14:29:16;27.00;98.30
13203;DHT22;6666;51.626;7.530;2022-08-19T14:31:45;27.20;97.60
13203;DHT22;6666;51.626;7.530;2022-08-19T14:34:13;27.00;98.00
13203;DHT22;6666;51.626;7.530;2022-08-19T14:36:41;26.70;98.20
13203;DHT22;6666;51.626;7.530;2022-08-19T14:39:13;26.60;98.30
13203;DHT22;6666;51.626;7.530;2022-08-19T14:41:41;26.60;98.30
13203;DHT22;6666;51.626;7.530;2022-08-19T14:44:10;26.70;98.20
13203;DHT22;6666;51.626;7.530;2022-08-19T14:46:39;26.80;98.10
13203;DHT22;6666;51.626;7.530;2022-08-19T14:49:15;27.00;97.40
13203;DHT22;6666;51.626;7.530;2022-08-19T14:51:45;27.20;97.20
13203;DHT22;6666;51.626;7.530;2022-08-19T14:54:15;27.10;96.80
13203;DHT22;6666;51.626;7.530;2022-08-19T14:56:44;27.00;96.00
13203;DHT22;6666;51.626;7.530;2022-08-19T14:59:13;27.10;96.70
13203;DHT22;6666;51.626;7.530;2022-08-19T15:01:42;27.10;96.90
13203;DHT22;6666;51.626;7.530;2022-08-19T15:04:10;27.00;95.80
13203;DHT22;6666;51.626;7.530;2022-08-19T15:06:39;27.10;96.40
13203;DHT22;6666;51.626;7.530;2022-08-19T15:09:09;27.00;95.80
13203;DHT22;6666;51.626;7.530;2022-08-19T15:11:39;27.20;96.60
13203;DHT22;6666;51.626;7.530;2022-08-19T15:14:07;27.00;95.90
13203;DHT22;6666;51.626;7.530;2022-08-19T15:16:36;27.00;95.90
13203;DHT22;6666;51.626;7.530;2022-08-19T15:19:06;27.10;95.80
13203;DHT22;6666;51.626;7.530;2022-08-19T15:21:34;27.10;95.60
13203;DHT22;6666;51.626;7.530;2022-08-19T15:24:04;27.00;95.60
13203;DHT22;6666;51.626;7.530;2022-08-19T15:26:32;27.10;95.90
13203;DHT22;6666;51.626;7.530;2022-08-19T15:29:04;27.10;96.10
13203;DHT22;6666;51.626;7.530;2022-08-19T15:31:32;27.10;96.80
13203;DHT22;6666;51.626;7.530;2022-08-19T15:34:05;27.00;95.10
13203;DHT22;6666;51.626;7.530;2022-08-19T15:36:34;26.90;95.60
13203;DHT22;6666;51.626;7.530;2022-08-19T15:39:03;26.80;96.20
13203;DHT22;6666;51.626;7.530;2022-08-19T15:41:33;26.80;95.30
13203;DHT22;6666;51.626;7.530;2022-08-19T15:44:07;26.60;95.40
13203;DHT22;6666;51.626;7.530;2022-08-19T15:46:38;26.60;95.90
13203;DHT22;6666;51.626;7.530;2022-08-19T15:49:07;26.60;95.70
13203;DHT22;6666;51.626;7.530;2022-08-19T15:51:36;26.50;96.10
13203;DHT22;6666;51.626;7.530;2022-08-19T15:54:07;26.30;98.50
13203;DHT22;6666;51.626;7.530;2022-08-19T15:56:37;26.30;99.20
13203;DHT22;6666;51.626;7.530;2022-08-19T15:59:30;26.20;98.90
13203;DHT22;6666;51.626;7.530;2022-08-19T16:02:18;26.20;99.90
13203;DHT22;6666;51.626;7.530;2022-08-19T16:05:06;26.10;99.90
13203;DHT22;6666;51.626;7.530;2022-08-19T16:07:53;26.00;99.00
13203;DHT22;6666;51.626;7.530;2022-08-19T16:10:21;26.00;97.70
13203;DHT22;6666;51.626;7.530;2022-08-19T16:12:54;26.00;98.20
13203;DHT22;6666;51.626;7.530;2022-08-19T16:15:25;26.00;99.70